Time;durP1;ratioP1;P1;durP2;ratioP2;P2;SDS_P1;SDS_P2;PMS_P1;PMS_P2;Temp;Humidity;BMP_temperature;BMP_pressure;BME280_temperature;BME280_humidity;BME280_pressure;Samples;Min_cycle;Max_cycle;Signal;HPM_P1;HPM_P2
2024/04/06 00:01:23;;;;;;;3.28;1.85;;;10.70;99.90;;;;;;5035090;28;20026;-84
2024/04/06 00:03:49;;;;;;;6.53;2.03;;;10.70;99.90;;;;;;5028993;28;20049;-85
2024/04/06 00:06:15;;;;;;;10.57;2.17;;;10.70;99.90;;;;;;5025818;28;20033;-85
2024/04/06 00:08:41;;;;;;;5.93;1.85;;;10.80;99.90;;;;;;5017224;28;20037;-85
2024/04/06 00:11:08;;;;;;;4.60;1.58;;;10.80;99.90;;;;;;5017632;28;20034;-86
2024/04/06 00:13:34;;;;;;;8.27;1.90;;;10.80;99.90;;;;;;5010231;28;20168;-85
2024/04/06 00:15:59;;;;;;;6.07;2.03;;;10.80;99.90;;;;;;5012087;28;20053;-85
2024/04/06 00:18:25;;;;;;;6.88;1.80;;;10.70;99.90;;;;;;5010852;28;20027;-86
2024/04/06 00:20:50;;;;;;;5.82;1.40;;;10.70;99.90;;;;;;5009541;28;20030;-85
2024/04/06 00:23:16;;;;;;;9.45;2.33;;;10.70;99.90;;;;;;5010569;28;20041;-84
2024/04/06 00:25:41;;;;;;;8.98;1.70;;;10.60;99.90;;;;;;5008018;28;20026;-84
2024/04/06 00:28:07;;;;;;;5.50;1.42;;;10.70;99.90;;;;;;5012540;28;20025;-84
2024/04/06 00:30:32;;;;;;;5.70;1.92;;;10.60;99.90;;;;;;5009346;28;20041;-84
2024/04/06 00:32:58;;;;;;;5.18;1.52;;;10.50;99.90;;;;;;5010078;28;20229;-84
2024/04/06 00:35:23;;;;;;;7.88;2.22;;;10.50;99.90;;;;;;5006438;28;20516;-85
2024/04/06 00:37:49;;;;;;;4.22;1.50;;;10.40;99.90;;;;;;5009129;28;20030;-86
2024/04/06 00:40:15;;;;;;;6.05;2.00;;;10.40;99.90;;;;;;5009645;28;20030;-84
2024/04/06 00:42:41;;;;;;;6.45;2.30;;;10.30;99.90;;;;;;5009221;28;20036;-83
2024/04/06 00:45:07;;;;;;;4.45;1.80;;;10.20;99.90;;;;;;5000814;28;20018;-85
2024/04/06 00:47:33;;;;;;;4.15;2.03;;;10.20;99.90;;;;;;5009080;28;20018;-84
2024/04/06 00:49:59;;;;;;;5.20;2.38;;;10.10;99.90;;;;;;5008229;28;20026;-84
2024/04/06 00:52:25;;;;;;;5.70;1.45;;;10.10;99.90;;;;;;5003409;28;20109;-84
2024/04/06 00:54:50;;;;;;;3.47;1.40;;;10.00;99.90;;;;;;5010895;28;20037;-84
2024/04/06 00:57:16;;;;;;;7.50;2.22;;;10.00;99.90;;;;;;5010625;28;20034;-84
2024/04/06 00:59:42;;;;;;;5.55;1.83;;;10.00;99.90;;;;;;5006144;28;20031;-84
2024/04/06 01:02:08;;;;;;;4.15;1.70;;;10.00;99.90;;;;;;5004226;28;20033;-84
2024/04/06 01:04:34;;;;;;;3.22;1.48;;;9.90;99.90;;;;;;5006016;28;20033;-84
2024/04/06 01:06:59;;;;;;;5.90;2.17;;;9.90;99.90;;;;;;5005609;28;20030;-84
2024/04/06 01:09:25;;;;;;;6.00;2.08;;;9.90;99.90;;;;;;5010395;28;20040;-85
2024/04/06 01:11:51;;;;;;;4.53;1.70;;;9.80;99.90;;;;;;5009747;28;20030;-86
2024/04/06 01:14:16;;;;;;;2.85;1.58;;;9.80;99.90;;;;;;5006274;28;20030;-84
2024/04/06 01:16:43;;;;;;;1.88;1.55;;;9.80;99.90;;;;;;5009197;28;20037;-84
2024/04/06 01:19:09;;;;;;;4.57;1.58;;;9.70;99.90;;;;;;5014120;28;20026;-83
2024/04/06 01:21:34;;;;;;;4.47;1.83;;;9.70;99.90;;;;;;5011481;28;20433;-79
2024/04/06 01:24:05;;;;;;;6.40;1.80;;;9.60;99.90;;;;;;5012134;28;20030;-84
2024/04/06 01:26:31;;;;;;;3.42;2.08;;;9.60;99.90;;;;;;5014700;28;20056;-81
2024/04/06 01:28:56;;;;;;;4.97;1.77;;;9.50;99.90;;;;;;5011968;28;20510;-85
2024/04/06 01:31:22;;;;;;;8.50;1.70;;;9.50;99.90;;;;;;5011181;28;20029;-84
2024/04/06 01:33:50;;;;;;;1.38;1.08;;;9.50;99.90;;;;;;5013278;28;20033;-83
2024/04/06 01:36:16;;;;;;;2.67;1.40;;;9.40;99.90;;;;;;5010637;28;20026;-85
2024/04/06 01:38:42;;;;;;;5.57;2.55;;;9.40;99.90;;;;;;5009079;28;20037;-83
2024/04/06 01:41:08;;;;;;;8.38;1.60;;;9.40;99.90;;;;;;5033525;28;20081;-83
2024/04/06 01:43:34;;;;;;;5.97;1.90;;;9.40;99.90;;;;;;5010798;28;20502;-85
2024/04/06 01:45:59;;;;;;;4.43;1.67;;;9.40;99.90;;;;;;5011521;28;20037;-84
2024/04/06 01:48:25;;;;;;;4.82;1.83;;;9.40;99.90;;;;;;5014996;28;20022;-84
2024/04/06 01:50:50;;;;;;;4.00;1.80;;;9.40;99.90;;;;;;5015643;28;20096;-83
2024/04/06 01:53:16;;;;;;;3.95;1.70;;;9.40;99.90;;;;;;5031943;28;20517;-84
2024/04/06 01:55:42;;;;;;;4.63;1.65;;;9.40;99.90;;;;;;5008418;28;20040;-83
2024/04/06 01:58:07;;;;;;;3.85;1.83;;;9.40;99.90;;;;;;5011274;28;20030;-84
2024/04/06 02:00:33;;;;;;;8.48;2.38;;;9.40;99.90;;;;;;5009897;28;20084;-84
2024/04/06 02:03:00;;;;;;;6.75;1.90;;;9.50;99.90;;;;;;5013934;28;20036;-83
2024/04/06 02:05:26;;;;;;;7.93;2.00;;;9.40;99.90;;;;;;5014764;28;20022;-84
2024/04/06 02:07:52;;;;;;;5.43;1.60;;;9.40;99.90;;;;;;5032929;28;20035;-84
2024/04/06 02:10:18;;;;;;;7.30;2.15;;;9.50;99.90;;;;;;5013370;28;20053;-84
2024/04/06 02:12:43;;;;;;;7.50;2.05;;;9.50;99.90;;;;;;5010899;28;20108;-84
2024/04/06 02:15:09;;;;;;;7.68;2.40;;;9.50;99.90;;;;;;5011379;28;20023;-83
2024/04/06 02:17:37;;;;;;;5.63;1.92;;;9.50;99.90;;;;;;5007807;28;20559;-84
2024/04/06 02:20:03;;;;;;;4.60;1.73;;;9.50;99.90;;;;;;5014256;28;20425;-84
2024/04/06 02:22:29;;;;;;;4.85;2.15;;;9.50;99.90;;;;;;5013769;28;20034;-84
2024/04/06 02:24:54;;;;;;;5.45;1.60;;;9.40;99.90;;;;;;5010882;28;20034;-84
2024/04/06 02:27:20;;;;;;;8.15;1.70;;;9.50;99.90;;;;;;5014334;28;20022;-86
2024/04/06 02:29:45;;;;;;;5.65;2.00;;;9.40;99.90;;;;;;5010752;28;20501;-84
2024/04/06 02:32:11;;;;;;;5.28;1.63;;;9.40;99.90;;;;;;5007806;28;20141;-84
2024/04/06 02:34:36;;;;;;;10.52;1.88;;;9.40;99.90;;;;;;5014464;28;20079;-84
2024/04/06 02:37:02;;;;;;;5.32;2.00;;;9.40;99.90;;;;;;5015480;28;20030;-86
2024/04/06 02:39:28;;;;;;;2.45;1.80;;;9.40;99.90;;;;;;5013144;28;20040;-85
2024/04/06 02:41:53;;;;;;;4.43;1.58;;;9.40;99.90;;;;;;5012352;28;20397;-85
2024/04/06 02:44:19;;;;;;;4.90;1.73;;;9.40;99.90;;;;;;5011803;28;20029;-84
2024/04/06 02:46:44;;;;;;;2.90;1.52;;;9.40;99.90;;;;;;5010330;28;20018;-84
2024/04/06 02:49:10;;;;;;;4.25;1.80;;;9.40;99.90;;;;;;5015008;28;20703;-84
2024/04/06 02:51:35;;;;;;;5.38;1.95;;;9.30;99.90;;;;;;5012094;28;20029;-86
2024/04/06 02:54:01;;;;;;;3.20;2.00;;;9.30;99.90;;;;;;5010245;28;20034;-84
2024/04/06 02:56:26;;;;;;;5.50;1.77;;;9.30;99.90;;;;;;5012012;28;20052;-85
2024/04/06 02:58:52;;;;;;;6.28;1.92;;;9.30;99.90;;;;;;5016519;28;20030;-84
2024/04/06 03:01:17;;;;;;;3.35;2.00;;;9.30;99.90;;;;;;5010391;28;20026;-84
2024/04/06 03:03:44;;;;;;;4.45;1.90;;;9.20;99.90;;;;;;5014460;28;20026;-84
2024/04/06 03:06:09;;;;;;;7.63;2.22;;;9.20;99.90;;;;;;5012239;28;20029;-84
2024/04/06 03:08:35;;;;;;;3.58;1.55;;;9.20;99.90;;;;;;5027715;28;20030;-84
2024/04/06 03:11:00;;;;;;;7.80;2.13;;;9.20;99.90;;;;;;5015458;28;20026;-84
2024/04/06 03:13:26;;;;;;;7.30;2.15;;;9.20;99.90;;;;;;5011162;28;20513;-85
2024/04/06 03:15:51;;;;;;;6.32;1.98;;;9.20;99.90;;;;;;5011096;28;20052;-84
2024/04/06 03:18:17;;;;;;;6.07;2.30;;;9.20;99.90;;;;;;5018259;28;20121;-86
2024/04/06 03:20:43;;;;;;;4.57;1.85;;;9.10;99.90;;;;;;5012259;28;20112;-85
2024/04/06 03:23:08;;;;;;;3.45;1.92;;;9.10;99.90;;;;;;5014326;28;20033;-84
2024/04/06 03:25:34;;;;;;;4.13;1.85;;;9.10;99.90;;;;;;5009446;28;20022;-85
2024/04/06 03:28:00;;;;;;;4.47;2.30;;;9.10;99.90;;;;;;5016775;28;20026;-85
2024/04/06 03:30:26;;;;;;;4.97;2.35;;;9.10;99.90;;;;;;5031207;28;20077;-85
2024/04/06 03:32:52;;;;;;;5.55;1.95;;;9.00;99.90;;;;;;5029072;28;20022;-86
2024/04/06 03:35:19;;;;;;;5.55;1.70;;;9.00;99.90;;;;;;5017895;28;20029;-85
2024/04/06 03:37:48;;;;;;;6.15;2.17;;;9.00;99.90;;;;;;5015553;28;20345;-85
2024/04/06 03:40:15;;;;;;;9.75;2.45;;;9.00;99.90;;;;;;5015405;28;20045;-85
2024/04/06 03:42:41;;;;;;;4.20;1.73;;;9.00;99.90;;;;;;5021599;28;20115;-85
2024/04/06 03:45:10;;;;;;;4.07;1.60;;;8.90;99.90;;;;;;5020117;28;20098;-84
2024/04/06 03:47:35;;;;;;;3.42;1.95;;;8.90;99.90;;;;;;5024045;28;20121;-86
2024/04/06 03:50:01;;;;;;;4.32;1.70;;;8.90;99.90;;;;;;5018532;28;20057;-86
2024/04/06 03:52:27;;;;;;;5.13;2.47;;;8.90;99.90;;;;;;5017173;28;20036;-86
2024/04/06 03:54:52;;;;;;;6.07;1.92;;;8.90;99.90;;;;;;5017418;28;20452;-86
2024/04/06 03:57:18;;;;;;;7.25;2.22;;;8.80;99.90;;;;;;5012540;28;21189;-85
2024/04/06 03:59:44;;;;;;;5.03;2.00;;;8.90;99.90;;;;;;5016182;28;20030;-86
2024/04/06 04:02:09;;;;;;;6.65;1.92;;;8.90;99.90;;;;;;5015047;28;20407;-86
2024/04/06 04:04:35;;;;;;;4.43;1.95;;;8.90;99.90;;;;;;5014319;28;20053;-85
2024/04/06 04:07:01;;;;;;;4.95;1.92;;;8.80;99.90;;;;;;5016680;28;20038;-85
2024/04/06 04:09:26;;;;;;;6.10;1.98;;;8.90;99.90;;;;;;5014519;28;20111;-87
2024/04/06 04:11:52;;;;;;;10.63;2.42;;;8.90;99.90;;;;;;5031442;28;20026;-85
2024/04/06 04:14:17;;;;;;;5.50;1.85;;;8.90;99.90;;;;;;5013957;28;20049;-85
2024/04/06 04:16:43;;;;;;;2.95;2.25;;;8.90;99.90;;;;;;5012821;28;20049;-84
2024/04/06 04:19:09;;;;;;;4.13;2.15;;;9.00;99.90;;;;;;5013753;28;20030;-85
2024/04/06 04:21:34;;;;;;;3.88;2.25;;;9.00;99.90;;;;;;5016474;28;20087;-86
2024/04/06 04:24:00;;;;;;;6.07;2.83;;;9.00;99.90;;;;;;5012971;28;20049;-85
2024/04/06 04:26:25;;;;;;;6.85;2.50;;;9.00;99.90;;;;;;5014369;28;20041;-84
2024/04/06 04:28:51;;;;;;;7.50;2.80;;;9.00;99.90;;;;;;5017084;28;20032;-84
2024/04/06 04:31:17;;;;;;;4.22;2.88;;;9.00;99.90;;;;;;5015257;28;20421;-86
2024/04/06 04:33:44;;;;;;;4.00;2.20;;;9.00;99.90;;;;;;5013296;28;20065;-86
2024/04/06 04:36:10;;;;;;;4.90;2.13;;;9.00;99.90;;;;;;5030300;28;20120;-86
2024/04/06 04:38:36;;;;;;;6.13;2.35;;;9.00;99.90;;;;;;5017578;28;20038;-86
2024/04/06 04:41:02;;;;;;;9.55;2.72;;;9.00;99.90;;;;;;5016809;28;20547;-85
2024/04/06 04:43:28;;;;;;;6.10;2.42;;;9.00;99.90;;;;;;5010975;28;20053;-85
2024/04/06 04:45:54;;;;;;;4.40;2.63;;;9.00;99.90;;;;;;5026939;28;20037;-85
2024/04/06 04:48:20;;;;;;;6.97;2.33;;;9.00;99.90;;;;;;5014266;28;20022;-85
2024/04/06 04:50:45;;;;;;;7.05;2.55;;;9.10;99.90;;;;;;5026189;28;20540;-85
2024/04/06 04:53:11;;;;;;;5.47;2.85;;;9.00;99.90;;;;;;5011874;28;20118;-85
2024/04/06 04:55:37;;;;;;;3.88;2.05;;;9.10;99.90;;;;;;5014628;28;20038;-85
2024/04/06 04:58:03;;;;;;;8.95;2.47;;;9.10;99.90;;;;;;5011559;28;20038;-85
2024/04/06 05:00:29;;;;;;;4.72;2.65;;;9.20;99.90;;;;;;5028565;28;20034;-85
2024/04/06 05:02:55;;;;;;;5.13;2.45;;;9.20;99.90;;;;;;5015761;28;20085;-85
2024/04/06 05:05:21;;;;;;;9.38;2.88;;;9.20;99.90;;;;;;5010078;28;20030;-84
2024/04/06 05:07:46;;;;;;;4.97;2.10;;;9.30;99.90;;;;;;5012275;28;20037;-85
2024/04/06 05:10:12;;;;;;;4.47;2.60;;;9.30;99.90;;;;;;5008777;28;20030;-85
2024/04/06 05:12:37;;;;;;;3.00;2.42;;;9.30;99.90;;;;;;5010916;28;20026;-86
2024/04/06 05:15:04;;;;;;;6.00;3.05;;;9.30;99.90;;;;;;5009105;28;20422;-85
2024/04/06 05:17:30;;;;;;;4.18;2.78;;;9.30;99.90;;;;;;5007375;28;20026;-85
2024/04/06 05:19:55;;;;;;;3.95;2.83;;;9.30;99.90;;;;;;5007244;28;20564;-86
2024/04/06 05:22:21;;;;;;;5.28;3.28;;;9.40;99.90;;;;;;5011489;28;20026;-85
2024/04/06 05:24:46;;;;;;;5.35;2.85;;;9.40;99.90;;;;;;5012815;28;20022;-85
2024/04/06 05:27:12;;;;;;;6.43;3.42;;;9.40;99.90;;;;;;5014204;28;20014;-85
2024/04/06 05:29:37;;;;;;;5.63;3.03;;;9.50;99.90;;;;;;5009084;28;20084;-85
2024/04/06 05:32:03;;;;;;;5.70;3.08;;;9.50;99.90;;;;;;5010871;28;20049;-84
2024/04/06 05:34:29;;;;;;;6.80;2.72;;;9.50;99.90;;;;;;5009280;28;21045;-85
2024/04/06 05:36:55;;;;;;;4.80;2.67;;;9.60;99.90;;;;;;5012623;28;20029;-85
2024/04/06 05:39:20;;;;;;;5.70;2.72;;;9.60;99.90;;;;;;5012031;28;20037;-86
2024/04/06 05:41:46;;;;;;;4.32;3.05;;;9.60;99.90;;;;;;5007846;28;20045;-85
2024/04/06 05:44:12;;;;;;;8.00;3.38;;;9.70;99.90;;;;;;5006713;28;20663;-84
2024/04/06 05:46:38;;;;;;;7.55;2.88;;;9.70;99.90;;;;;;5009138;28;20391;-85
2024/04/06 05:49:05;;;;;;;10.05;3.08;;;9.70;99.90;;;;;;5006434;28;20034;-85
2024/04/06 05:51:31;;;;;;;5.97;2.60;;;9.80;99.90;;;;;;5011939;28;20033;-85
2024/04/06 05:53:57;;;;;;;8.35;3.63;;;9.80;99.90;;;;;;5008956;28;20033;-85
2024/04/06 05:56:23;;;;;;;7.10;3.03;;;9.80;99.90;;;;;;5014030;28;20045;-85
2024/04/06 05:58:48;;;;;;;7.28;2.70;;;9.90;99.90;;;;;;5009565;28;20034;-86
2024/04/06 06:01:14;;;;;;;6.90;3.42;;;9.90;99.90;;;;;;5012327;28;20084;-85
2024/04/06 06:03:39;;;;;;;7.95;2.75;;;10.00;99.90;;;;;;5012949;28;20022;-85
2024/04/06 06:06:05;;;;;;;7.30;3.10;;;10.00;99.90;;;;;;5011806;28;20034;-85
2024/04/06 06:08:30;;;;;;;5.47;3.17;;;10.10;99.90;;;;;;5012750;28;20064;-85
2024/04/06 06:10:56;;;;;;;10.40;3.08;;;10.10;99.90;;;;;;5008342;28;20552;-85
2024/04/06 06:13:22;;;;;;;12.70;3.03;;;10.20;99.90;;;;;;5012571;28;20346;-85
2024/04/06 06:15:47;;;;;;;8.25;2.60;;;10.20;99.90;;;;;;5014154;28;20502;-85
2024/04/06 06:18:13;;;;;;;7.97;3.05;;;10.30;99.90;;;;;;5015710;28;20260;-85
2024/04/06 06:20:41;;;;;;;5.78;2.63;;;10.30;99.90;;;;;;5014658;28;20459;-87
2024/04/06 06:23:06;;;;;;;6.53;3.38;;;10.30;99.90;;;;;;5012785;28;20026;-87
2024/04/06 06:25:33;;;;;;;5.75;2.38;;;10.40;99.90;;;;;;5028212;28;20018;-84
2024/04/06 06:27:58;;;;;;;4.47;2.55;;;10.40;99.90;;;;;;5015933;28;20025;-86
2024/04/06 06:30:24;;;;;;;7.60;3.22;;;10.50;99.90;;;;;;5014336;28;20161;-85
2024/04/06 06:32:50;;;;;;;8.82;2.60;;;10.60;99.90;;;;;;5015423;28;20022;-85
2024/04/06 06:35:16;;;;;;;8.07;2.35;;;10.80;99.90;;;;;;5015452;28;20613;-86
2024/04/06 06:37:41;;;;;;;7.20;2.63;;;10.90;99.90;;;;;;5015163;28;20030;-86
2024/04/06 06:40:07;;;;;;;8.23;3.10;;;11.00;99.90;;;;;;5000182;28;20044;-86
2024/04/06 06:42:33;;;;;;;6.53;2.65;;;11.00;99.90;;;;;;5016622;28;20022;-84
2024/04/06 06:45:04;;;;;;;4.55;2.08;;;11.10;99.90;;;;;;5015985;28;20438;-86
2024/04/06 06:47:31;;;;;;;7.72;2.60;;;11.10;99.90;;;;;;5015730;28;20036;-85
2024/04/06 06:49:56;;;;;;;3.70;2.50;;;11.10;99.90;;;;;;5017015;28;20025;-86
2024/04/06 06:52:22;;;;;;;6.90;3.28;;;11.20;99.90;;;;;;5016235;28;20148;-86
2024/04/06 06:54:47;;;;;;;5.57;2.45;;;11.30;99.90;;;;;;5015525;28;20021;-84
2024/04/06 06:57:13;;;;;;;6.28;2.60;;;11.40;99.90;;;;;;5022506;28;20029;-88
2024/04/06 06:59:38;;;;;;;7.60;2.40;;;11.50;99.90;;;;;;5036487;28;20033;-88
2024/04/06 07:02:05;;;;;;;4.80;1.98;;;11.50;99.90;;;;;;5030686;28;20037;-87
2024/04/06 07:04:30;;;;;;;6.18;2.08;;;11.70;99.90;;;;;;5016896;28;20025;-88
2024/04/06 07:06:56;;;;;;;4.40;1.98;;;11.80;99.90;;;;;;5016298;28;20089;-87
2024/04/06 07:09:22;;;;;;;7.63;2.08;;;11.90;99.90;;;;;;5017529;28;20101;-87
2024/04/06 07:11:47;;;;;;;4.70;2.00;;;12.10;99.90;;;;;;5011285;28;20101;-86
2024/04/06 07:14:13;;;;;;;7.28;2.13;;;12.20;99.90;;;;;;5008200;28;20057;-87
2024/04/06 07:16:38;;;;;;;2.42;1.70;;;12.40;99.90;;;;;;5009094;28;20022;-87
2024/04/06 07:19:06;;;;;;;4.50;2.40;;;12.60;99.90;;;;;;5008552;28;20034;-87
2024/04/06 07:21:32;;;;;;;2.50;1.67;;;12.80;99.90;;;;;;5010753;28;20076;-87
2024/04/06 07:23:57;;;;;;;6.82;2.50;;;13.00;99.90;;;;;;5011622;28;20030;-87
2024/04/06 07:26:24;;;;;;;4.63;1.90;;;13.20;99.90;;;;;;5010792;28;21290;-86
2024/04/06 07:28:51;;;;;;;6.15;1.80;;;13.40;99.90;;;;;;5009690;28;20026;-87
2024/04/06 07:31:16;;;;;;;4.38;2.38;;;13.50;99.90;;;;;;5008054;28;20084;-87
2024/04/06 07:33:42;;;;;;;4.50;1.83;;;13.80;99.90;;;;;;5009669;28;20048;-87
2024/04/06 07:36:08;;;;;;;5.47;3.03;;;13.90;99.90;;;;;;5012059;28;20034;-87
2024/04/06 07:38:34;;;;;;;4.55;1.63;;;14.10;99.90;;;;;;5010270;28;20499;-86
2024/04/06 07:41:02;;;;;;;4.28;1.95;;;14.40;99.90;;;;;;5010386;28;20176;-86
2024/04/06 07:43:28;;;;;;;4.82;3.17;;;14.60;99.90;;;;;;5011577;28;20530;-87
2024/04/06 07:45:55;;;;;;;4.30;1.80;;;14.80;99.90;;;;;;5011481;28;20137;-86
2024/04/06 07:48:22;;;;;;;3.30;1.77;;;15.00;99.90;;;;;;5006983;28;20096;-86
2024/04/06 07:50:47;;;;;;;6.20;1.95;;;15.10;99.90;;;;;;5010383;28;20613;-85
2024/04/06 07:53:13;;;;;;;3.88;1.63;;;15.30;99.90;;;;;;5008697;28;20044;-85
2024/04/06 07:55:39;;;;;;;3.22;2.47;;;15.50;99.90;;;;;;5010212;28;20075;-87
2024/04/06 07:58:04;;;;;;;4.95;2.28;;;15.50;99.90;;;;;;5009083;28;20034;-86
2024/04/06 08:04:09;;;;;;;7.38;2.42;;;15.50;99.90;;;;;;5008145;23;20049;-54
2024/04/06 08:06:35;;;;;;;4.10;2.30;;;15.50;99.90;;;;;;5032404;28;20017;-49
2024/04/06 08:09:00;;;;;;;4.68;2.70;;;15.60;99.90;;;;;;5025488;28;20039;-50
2024/04/06 08:11:26;;;;;;;2.70;2.10;;;15.70;99.90;;;;;;5029611;28;20025;-53
2024/04/06 08:13:51;;;;;;;5.22;3.05;;;15.70;99.90;;;;;;5020212;28;20052;-50
2024/04/06 08:16:17;;;;;;;6.30;3.00;;;15.70;99.90;;;;;;5022870;28;20109;-51
2024/04/06 08:18:42;;;;;;;4.68;3.28;;;15.80;99.90;;;;;;5023415;28;20109;-49
2024/04/06 08:21:08;;;;;;;5.78;2.78;;;15.80;99.90;;;;;;5021393;28;20064;-48
2024/04/06 08:23:34;;;;;;;6.20;2.97;;;15.80;99.90;;;;;;5024034;28;20039;-52
2024/04/06 08:25:59;;;;;;;4.75;2.95;;;15.80;99.90;;;;;;5021541;28;20120;-50
2024/04/06 08:28:25;;;;;;;3.38;2.60;;;15.90;99.90;;;;;;5020514;28;20173;-49
2024/04/06 08:30:50;;;;;;;5.65;3.08;;;15.90;99.90;;;;;;5021140;28;20117;-51
2024/04/06 08:33:16;;;;;;;5.10;3.33;;;16.00;99.90;;;;;;5024856;28;20029;-55
2024/04/06 08:35:41;;;;;;;3.55;2.97;;;16.00;99.90;;;;;;5020576;28;20033;-54
2024/04/06 08:38:07;;;;;;;4.60;2.63;;;16.10;99.90;;;;;;5021070;28;20022;-50
2024/04/06 08:40:52;;;;;;;4.47;3.25;;;16.10;99.90;;;;;;5020657;28;20061;-49
2024/04/06 08:43:18;;;;;;;5.43;3.30;;;16.20;99.90;;;;;;5021660;28;20025;-51
2024/04/06 08:45:45;;;;;;;5.95;2.55;;;16.20;99.90;;;;;;5020490;28;20375;-53
2024/04/06 08:48:14;;;;;;;6.60;3.28;;;16.20;99.90;;;;;;5019972;28;20022;-53
2024/04/06 08:50:42;;;;;;;4.93;3.28;;;16.30;99.90;;;;;;5018262;28;20079;-55
2024/04/06 08:53:07;;;;;;;4.75;3.47;;;16.50;99.90;;;;;;5019540;28;20087;-53
2024/04/06 08:55:34;;;;;;;5.97;3.38;;;16.60;99.90;;;;;;5021183;28;20029;-52
2024/04/06 08:57:59;;;;;;;7.35;3.33;;;16.70;99.90;;;;;;5021056;28;20022;-53
2024/04/06 09:00:27;;;;;;;4.22;2.78;;;16.70;99.90;;;;;;5020667;28;20549;-51
2024/04/06 09:02:53;;;;;;;3.47;2.47;;;16.80;99.90;;;;;;5015528;28;20054;-49
2024/04/06 09:05:18;;;;;;;6.55;3.08;;;16.90;99.90;;;;;;5022259;28;20036;-47
2024/04/06 09:07:48;;;;;;;6.40;3.40;;;17.00;99.90;;;;;;5018946;28;20593;-49
2024/04/06 09:10:13;;;;;;;6.22;3.88;;;17.30;99.90;;;;;;5021961;28;20022;-52
2024/04/06 09:12:39;;;;;;;6.00;4.20;;;17.50;99.90;;;;;;5019190;28;20045;-48
2024/04/06 09:15:06;;;;;;;6.57;4.00;;;17.70;99.90;;;;;;5023289;28;20040;-48
2024/04/06 09:17:32;;;;;;;4.05;3.50;;;17.90;99.90;;;;;;5020996;28;20113;-46
2024/04/06 09:19:58;;;;;;;5.90;4.47;;;18.00;99.90;;;;;;5019273;28;20528;-52
2024/04/06 09:22:24;;;;;;;5.72;3.67;;;18.00;99.90;;;;;;5018908;28;20108;-52
2024/04/06 09:24:54;;;;;;;6.00;4.03;;;18.00;99.90;;;;;;5022747;28;20026;-47
2024/04/06 09:27:19;;;;;;;5.85;3.63;;;18.10;99.90;;;;;;5020102;28;20022;-53
2024/04/06 09:29:48;;;;;;;5.93;3.85;;;18.10;99.90;;;;;;5024090;28;20079;-51
2024/04/06 09:32:18;;;;;;;4.97;3.60;;;18.20;99.90;;;;;;5019346;28;20046;-53
2024/04/06 09:34:53;;;;;;;4.03;3.17;;;18.20;99.90;;;;;;5020240;28;20032;-51
2024/04/06 09:37:27;;;;;;;6.60;4.00;;;18.30;99.90;;;;;;5021878;28;20065;-51
2024/04/06 09:39:55;;;;;;;6.05;3.65;;;18.50;99.90;;;;;;5023313;28;20253;-49
2024/04/06 09:42:22;;;;;;;6.30;3.60;;;18.70;99.90;;;;;;5023497;28;20022;-49
2024/04/06 09:44:49;;;;;;;6.75;3.70;;;18.90;99.90;;;;;;5023860;28;20026;-52
2024/04/06 09:47:16;;;;;;;6.88;3.88;;;19.10;99.90;;;;;;5023818;28;20040;-49
2024/04/06 09:49:42;;;;;;;6.72;3.50;;;19.20;99.90;;;;;;5024989;28;20017;-49
2024/04/06 09:52:09;;;;;;;6.97;4.22;;;19.30;99.90;;;;;;5023220;28;20536;-52
2024/04/06 09:54:34;;;;;;;5.57;4.15;;;19.40;99.90;;;;;;5024874;28;20553;-53
2024/04/06 09:57:00;;;;;;;6.10;3.60;;;19.50;99.90;;;;;;5025802;28;20029;-53
2024/04/06 09:59:29;;;;;;;5.35;3.55;;;19.50;99.90;;;;;;5026048;28;20029;-48
2024/04/06 10:01:56;;;;;;;5.00;3.33;;;19.50;99.90;;;;;;5023399;28;20017;-54
2024/04/06 10:04:26;;;;;;;9.13;3.63;;;19.60;99.90;;;;;;5023945;28;20026;-51
2024/04/06 10:06:54;;;;;;;6.35;3.47;;;19.70;99.90;;;;;;5025688;28;20028;-52
2024/04/06 10:09:20;;;;;;;7.13;3.75;;;19.80;99.90;;;;;;5024387;28;20068;-48
2024/04/06 10:11:45;;;;;;;6.38;3.10;;;19.80;99.90;;;;;;5026056;28;20045;-52
2024/04/06 10:14:11;;;;;;;4.13;2.92;;;19.80;99.90;;;;;;5024704;28;20566;-47
2024/04/06 10:16:39;;;;;;;3.90;2.95;;;19.90;99.90;;;;;;5025288;28;20033;-52
2024/04/06 10:19:09;;;;;;;6.03;3.45;;;19.90;99.90;;;;;;5021038;28;20049;-50
2024/04/06 10:21:45;;;;;;;5.05;3.05;;;19.90;99.90;;;;;;5026264;28;20036;-51
2024/04/06 10:24:12;;;;;;;5.90;3.33;;;19.90;99.90;;;;;;5024690;28;20030;-53
2024/04/06 10:26:50;;;;;;;6.18;3.67;;;20.00;99.90;;;;;;5023144;28;21849;-49
2024/04/06 10:29:16;;;;;;;6.47;4.10;;;20.00;99.90;;;;;;5023204;28;20026;-50
2024/04/06 10:31:42;;;;;;;4.78;3.08;;;19.90;99.90;;;;;;5022997;28;20036;-49
2024/04/06 10:34:08;;;;;;;5.43;3.50;;;19.90;99.90;;;;;;5023758;28;20494;-47
2024/04/06 10:36:34;;;;;;;5.35;2.90;;;19.90;99.90;;;;;;5019288;28;20033;-49
2024/04/06 10:39:04;;;;;;;3.47;3.17;;;19.90;99.90;;;;;;5020663;28;20029;-49
2024/04/06 10:41:31;;;;;;;3.58;2.92;;;19.90;99.90;;;;;;5023766;28;20025;-50
2024/04/06 10:43:58;;;;;;;4.50;3.28;;;19.90;99.90;;;;;;5018219;28;20071;-52
2024/04/06 10:46:25;;;;;;;7.75;3.22;;;19.80;99.90;;;;;;5024265;28;20028;-50
2024/04/06 10:48:50;;;;;;;5.25;2.92;;;19.80;99.90;;;;;;5021135;28;20052;-51
2024/04/06 10:51:16;;;;;;;6.47;2.70;;;19.80;99.90;;;;;;5022200;28;20091;-49
2024/04/06 10:53:41;;;;;;;4.93;2.85;;;19.70;99.90;;;;;;5015683;28;20064;-57
2024/04/06 10:56:09;;;;;;;6.13;2.70;;;19.70;99.90;;;;;;5024129;28;20041;-48
2024/04/06 10:58:35;;;;;;;4.75;2.97;;;19.90;99.90;;;;;;5023290;28;20033;-48
2024/04/06 11:01:08;;;;;;;6.32;3.45;;;20.00;99.90;;;;;;5021903;28;20108;-47
2024/04/06 11:03:34;;;;;;;4.25;3.08;;;20.10;99.90;;;;;;5022194;28;20450;-54
2024/04/06 11:06:00;;;;;;;4.28;3.00;;;20.10;99.90;;;;;;5025720;28;20041;-49
2024/04/06 11:08:25;;;;;;;7.40;3.08;;;20.10;99.90;;;;;;5023241;28;20486;-51
2024/04/06 11:10:51;;;;;;;4.05;2.38;;;20.20;99.90;;;;;;5024407;28;20020;-51
2024/04/06 11:13:16;;;;;;;2.47;2.25;;;20.30;99.90;;;;;;5019762;28;20405;-47
2024/04/06 11:15:42;;;;;;;6.20;3.10;;;20.30;99.90;;;;;;5025031;28;20075;-48
2024/04/06 11:18:07;;;;;;;4.00;2.33;;;20.30;99.90;;;;;;5021213;28;20260;-48
2024/04/06 11:20:33;;;;;;;4.47;2.70;;;20.40;99.90;;;;;;5022080;28;20029;-50
2024/04/06 11:22:59;;;;;;;3.80;2.50;;;20.40;99.90;;;;;;5021333;28;20056;-51
2024/04/06 11:25:26;;;;;;;5.85;3.03;;;20.50;99.90;;;;;;5022702;28;20022;-49
2024/04/06 11:27:52;;;;;;;3.47;2.30;;;20.50;99.90;;;;;;5022737;28;20099;-54
2024/04/06 11:30:19;;;;;;;3.10;2.63;;;20.50;99.90;;;;;;5023711;28;20280;-50
2024/04/06 11:32:50;;;;;;;4.72;1.77;;;20.50;99.90;;;;;;5032696;22;20055;-52
2024/04/06 11:35:17;;;;;;;3.60;2.40;;;20.50;99.90;;;;;;5027356;28;20406;-55
2024/04/06 11:37:44;;;;;;;3.88;2.00;;;20.60;99.90;;;;;;5026684;28;20029;-52
2024/04/06 11:40:10;;;;;;;3.50;1.83;;;20.60;99.90;;;;;;5028191;28;20489;-58
2024/04/06 11:42:35;;;;;;;1.70;1.60;;;20.60;99.90;;;;;;5030453;28;20123;-58
2024/04/06 11:45:02;;;;;;;2.35;1.70;;;20.60;99.90;;;;;;5047755;28;20470;-51
2024/04/06 11:47:28;;;;;;;2.45;1.70;;;20.70;99.90;;;;;;5052373;28;20012;-56
2024/04/06 11:49:53;;;;;;;5.63;1.95;;;20.70;99.90;;;;;;5049255;28;20079;-57
2024/04/06 11:52:19;;;;;;;2.28;2.08;;;20.70;99.90;;;;;;5043930;28;20029;-53
2024/04/06 11:54:45;;;;;;;2.38;1.85;;;20.70;99.90;;;;;;5047868;28;20036;-59
2024/04/06 11:57:11;;;;;;;1.75;1.60;;;20.70;99.90;;;;;;5047005;28;20025;-57
2024/04/06 11:59:36;;;;;;;2.60;1.63;;;20.70;99.90;;;;;;5046040;28;20032;-55
2024/04/06 12:02:02;;;;;;;4.30;1.77;;;20.70;99.90;;;;;;5048005;28;20031;-54
2024/04/06 12:04:27;;;;;;;2.80;1.90;;;20.80;99.90;;;;;;5044689;28;20464;-58
2024/04/06 12:06:53;;;;;;;3.35;1.33;;;20.90;99.90;;;;;;5047872;28;20064;-59
2024/04/06 12:09:22;;;;;;;1.30;1.08;;;20.80;99.90;;;;;;5045071;28;20029;-57
2024/04/06 12:11:47;;;;;;;1.52;0.90;;;20.80;99.90;;;;;;5048439;28;20021;-56
2024/04/06 12:14:13;;;;;;;2.63;1.10;;;20.90;99.90;;;;;;5050790;28;20098;-52
2024/04/06 12:16:39;;;;;;;3.13;1.30;;;20.90;99.90;;;;;;5049883;28;20021;-58
2024/04/06 12:19:04;;;;;;;4.00;1.15;;;20.90;99.90;;;;;;5045974;28;20032;-58
2024/04/06 12:21:30;;;;;;;1.23;0.90;;;21.00;99.90;;;;;;5055296;28;20463;-56
2024/04/06 12:23:56;;;;;;;1.00;0.88;;;21.00;99.90;;;;;;5041017;28;20040;-53
2024/04/06 12:26:22;;;;;;;2.35;0.73;;;21.10;99.90;;;;;;5050202;28;20074;-55
2024/04/06 12:28:48;;;;;;;3.85;1.38;;;21.10;99.90;;;;;;5043522;28;20017;-54
2024/04/06 12:31:14;;;;;;;1.77;1.17;;;21.20;99.90;;;;;;5042696;28;20241;-55
2024/04/06 12:33:40;;;;;;;4.40;1.92;;;21.30;99.90;;;;;;5045476;28;20023;-54
2024/04/06 12:36:06;;;;;;;0.98;0.80;;;21.30;99.90;;;;;;5041389;28;20037;-54
2024/04/06 12:38:32;;;;;;;1.35;1.00;;;21.30;99.90;;;;;;5043511;28;20044;-52
2024/04/06 12:40:59;;;;;;;2.80;1.13;;;21.30;99.90;;;;;;5040307;28;20472;-55
2024/04/06 12:43:25;;;;;;;2.55;0.90;;;21.20;99.90;;;;;;5046274;28;20593;-52
2024/04/06 12:45:51;;;;;;;1.02;0.82;;;21.20;99.90;;;;;;5046554;28;20028;-55
2024/04/06 12:48:20;;;;;;;4.20;1.08;;;21.20;99.90;;;;;;5047582;28;20028;-54